Time;durP1;ratioP1;P1;durP2;ratioP2;P2;SDS_P1;SDS_P2;PMS_P1;PMS_P2;Temp;Humidity;BMP_temperature;BMP_pressure;BME280_temperature;BME280_humidity;BME280_pressure;Samples;Min_cycle;Max_cycle;Signal;HPM_P1;HPM_P2
2022/05/13 00:05:27;;;;;;;10.57;4.40;;;13.50;99.90;;;;;;12495360;28;20098;-79
2022/05/13 00:11:29;;;;;;;6.05;4.30;;;13.50;99.90;;;;;;12513854;28;20045;-79
2022/05/13 00:17:31;;;;;;;6.85;4.00;;;13.30;99.90;;;;;;12513841;28;20634;-79
2022/05/13 00:23:32;;;;;;;5.10;3.60;;;13.30;99.90;;;;;;12514107;28;20109;-79
2022/05/13 00:29:34;;;;;;;6.68;3.45;;;13.20;99.90;;;;;;12495243;28;20054;-79
2022/05/13 00:35:37;;;;;;;7.50;3.08;;;13.50;99.90;;;;;;12464719;28;20049;-79
2022/05/13 00:41:40;;;;;;;6.85;2.80;;;13.30;99.90;;;;;;12504608;28;20080;-79
2022/05/13 00:47:43;;;;;;;5.60;2.40;;;13.20;99.90;;;;;;12544400;28;20045;-79
2022/05/13 00:53:46;;;;;;;5.80;2.50;;;13.30;99.90;;;;;;12514378;28;20536;-79
2022/05/13 00:59:51;;;;;;;5.03;2.28;;;13.20;99.90;;;;;;12487245;28;20056;-79
2022/05/13 01:06:03;;;;;;;4.88;2.47;;;13.30;99.90;;;;;;12510873;28;21262;-79
2022/05/13 01:12:10;;;;;;;5.25;2.45;;;13.40;99.90;;;;;;12513196;28;20092;-79
2022/05/13 01:18:12;;;;;;;5.03;2.85;;;13.40;99.90;;;;;;12493189;28;20049;-79
2022/05/13 01:24:19;;;;;;;5.40;1.95;;;13.40;99.90;;;;;;12487587;28;20512;-79
2022/05/13 01:30:25;;;;;;;5.05;2.10;;;13.40;99.90;;;;;;12489891;28;21639;-79
2022/05/13 01:36:27;;;;;;;5.57;2.00;;;13.40;99.90;;;;;;12517342;28;20517;-79
2022/05/13 01:42:31;;;;;;;5.95;2.08;;;13.40;99.90;;;;;;12511411;28;20109;-79
2022/05/13 01:48:34;;;;;;;4.97;1.80;;;13.40;99.90;;;;;;12516159;28;20110;-79
2022/05/13 01:54:36;;;;;;;4.88;2.35;;;13.40;99.90;;;;;;12511448;28;20040;-79
2022/05/13 02:00:39;;;;;;;7.65;2.65;;;13.40;99.90;;;;;;12511674;28;20155;-79
2022/05/13 02:06:41;;;;;;;5.22;2.83;;;13.30;99.90;;;;;;12509077;28;20053;-78
2022/05/13 02:12:43;;;;;;;7.35;3.50;;;13.30;99.90;;;;;;12483719;28;20041;-79
2022/05/13 02:18:45;;;;;;;5.65;3.47;;;13.30;99.90;;;;;;12477779;28;20110;-79
2022/05/13 02:24:47;;;;;;;7.60;3.40;;;13.20;99.90;;;;;;12495929;28;20090;-79
2022/05/13 02:30:49;;;;;;;9.50;3.60;;;13.10;99.90;;;;;;12502902;28;20139;-80
2022/05/13 02:36:51;;;;;;;7.60;3.60;;;13.10;99.90;;;;;;12513835;28;20052;-79
2022/05/13 02:42:52;;;;;;;7.80;3.75;;;13.20;99.90;;;;;;12501099;28;20048;-79
2022/05/13 02:48:55;;;;;;;6.88;3.60;;;13.10;99.90;;;;;;12515057;28;20132;-79
2022/05/13 02:54:57;;;;;;;8.07;3.30;;;13.10;99.90;;;;;;12507644;28;20522;-79
2022/05/13 03:00:59;;;;;;;9.07;3.03;;;13.00;99.90;;;;;;12510790;28;20040;-79
2022/05/13 03:07:06;;;;;;;6.53;3.35;;;13.10;99.90;;;;;;12515517;28;20871;-79
2022/05/13 03:13:09;;;;;;;7.28;3.60;;;13.10;99.90;;;;;;12510922;28;20045;-79
2022/05/13 03:19:11;;;;;;;6.18;3.60;;;12.90;99.90;;;;;;12512320;28;20142;-79
2022/05/13 03:25:15;;;;;;;6.70;3.47;;;12.80;99.90;;;;;;12512338;28;20147;-79
2022/05/13 03:31:16;;;;;;;7.17;3.67;;;12.70;99.90;;;;;;12510729;28;20053;-78
2022/05/13 03:37:18;;;;;;;9.30;4.60;;;12.80;99.90;;;;;;12511855;28;20049;-79
2022/05/13 03:43:20;;;;;;;8.02;5.10;;;12.60;99.90;;;;;;12521017;28;20509;-79
2022/05/13 03:49:22;;;;;;;8.82;5.10;;;12.50;99.90;;;;;;12520928;28;20049;-79
2022/05/13 03:55:24;;;;;;;8.30;4.93;;;12.40;99.90;;;;;;12529216;28;20127;-79
2022/05/13 04:01:32;;;;;;;11.35;5.38;;;12.30;99.90;;;;;;12512542;28;20493;-79
2022/05/13 04:20:21;;;;;;;9.18;5.00;;;12.20;99.90;;;;;;12513219;28;20099;-80
2022/05/13 04:26:23;;;;;;;8.10;4.82;;;12.20;99.90;;;;;;12508309;28;20160;-79
2022/05/13 04:32:25;;;;;;;8.20;4.32;;;12.30;99.90;;;;;;12495698;28;20045;-78
2022/05/13 04:38:26;;;;;;;9.07;4.78;;;12.20;99.90;;;;;;12502635;28;20061;-80
2022/05/13 04:44:28;;;;;;;7.47;4.00;;;12.20;99.90;;;;;;12501255;28;20044;-79
2022/05/13 04:50:30;;;;;;;11.23;4.25;;;12.00;99.90;;;;;;12513042;28;20588;-78
2022/05/13 04:56:32;;;;;;;8.18;3.58;;;12.10;99.90;;;;;;12510266;28;20052;-79
2022/05/13 05:02:34;;;;;;;6.60;2.72;;;12.00;99.90;;;;;;12512643;28;20161;-79
2022/05/13 05:08:36;;;;;;;6.50;2.85;;;12.00;99.90;;;;;;12515222;28;20055;-79
2022/05/13 05:14:38;;;;;;;6.03;2.97;;;12.10;99.90;;;;;;12503326;28;20106;-79
2022/05/13 05:20:41;;;;;;;5.65;2.80;;;12.00;99.90;;;;;;12510918;28;20556;-79
2022/05/13 05:26:49;;;;;;;11.00;3.33;;;11.90;99.90;;;;;;12510009;28;20555;-79
2022/05/13 05:32:52;;;;;;;6.35;2.97;;;11.90;99.90;;;;;;12504671;28;20657;-79
2022/05/13 05:38:54;;;;;;;8.40;2.60;;;11.80;99.90;;;;;;12518968;28;20049;-79
2022/05/13 05:44:56;;;;;;;6.63;2.42;;;11.90;99.90;;;;;;12506930;28;20497;-78
2022/05/13 05:50:58;;;;;;;8.65;2.08;;;12.00;99.90;;;;;;12485443;28;20045;-79
2022/05/13 05:57:15;;;;;;;9.10;2.28;;;12.10;99.90;;;;;;12523212;28;20048;-79
2022/05/13 06:03:18;;;;;;;9.63;2.72;;;12.20;99.90;;;;;;12519003;28;20041;-79
2022/05/13 06:09:20;;;;;;;5.78;2.58;;;12.30;99.90;;;;;;12516446;28;20054;-79
2022/05/13 06:15:23;;;;;;;11.30;2.78;;;12.30;99.90;;;;;;12516994;28;20059;-79
2022/05/13 06:21:24;;;;;;;9.68;2.90;;;12.50;99.90;;;;;;12520838;28;20131;-79
2022/05/13 06:27:26;;;;;;;11.32;2.97;;;12.50;99.90;;;;;;12535007;28;20501;-79
2022/05/13 06:33:28;;;;;;;6.45;1.95;;;12.50;99.90;;;;;;12515289;28;20093;-79
2022/05/13 06:39:30;;;;;;;7.93;2.20;;;12.40;99.90;;;;;;12515729;28;20892;-79
2022/05/13 06:45:32;;;;;;;7.32;2.20;;;12.30;99.90;;;;;;12513457;28;20061;-79
2022/05/13 06:51:35;;;;;;;7.93;1.95;;;12.30;99.90;;;;;;12522371;28;20447;-78
2022/05/13 06:57:37;;;;;;;10.48;2.40;;;12.30;99.90;;;;;;12508917;28;20060;-79
2022/05/13 07:03:39;;;;;;;8.32;2.17;;;12.40;99.90;;;;;;12516011;28;20167;-78
2022/05/13 07:09:41;;;;;;;8.57;2.35;;;12.40;99.90;;;;;;12515982;28;20058;-79
2022/05/13 07:15:43;;;;;;;9.35;2.70;;;12.30;99.90;;;;;;12509236;28;20052;-78
2022/05/13 07:21:46;;;;;;;7.45;3.90;;;12.40;99.90;;;;;;12510925;28;20055;-78
2022/05/13 07:27:48;;;;;;;11.00;3.17;;;12.60;99.90;;;;;;12520688;28;20049;-78
2022/05/13 07:33:50;;;;;;;8.93;3.13;;;12.60;99.90;;;;;;12516754;28;20040;-79
2022/05/13 07:46:14;;;;;;;12.13;3.45;;;12.80;99.90;;;;;;12512252;28;20037;-80
2022/05/13 07:52:16;;;;;;;10.60;3.38;;;12.80;99.90;;;;;;12524352;28;20063;-80
2022/05/13 07:58:17;;;;;;;12.43;4.47;;;12.70;99.90;;;;;;12567289;28;20063;-79
2022/05/13 08:04:20;;;;;;;12.43;3.55;;;12.80;99.90;;;;;;12549243;28;20078;-79
2022/05/13 08:10:21;;;;;;;11.10;3.78;;;12.80;99.90;;;;;;12563194;28;20052;-79
2022/05/13 08:16:26;;;;;;;12.40;3.60;;;12.90;99.90;;;;;;12553463;28;20105;-79
2022/05/13 08:22:28;;;;;;;11.85;3.80;;;13.00;99.90;;;;;;12554159;28;20055;-79
2022/05/13 08:28:31;;;;;;;14.32;3.75;;;13.20;99.90;;;;;;12547238;28;20048;-79
2022/05/13 08:34:33;;;;;;;9.85;3.15;;;13.30;99.90;;;;;;12553125;28;20040;-79
2022/05/13 08:40:50;;;;;;;11.50;3.28;;;13.70;99.90;;;;;;12545012;28;20090;-79
2022/05/13 08:47:13;;;;;;;8.05;2.85;;;13.80;99.90;;;;;;12559720;28;20487;-79
2022/05/13 08:53:30;;;;;;;13.27;2.90;;;14.10;99.90;;;;;;12562667;28;20041;-79
2022/05/13 08:59:56;;;;;;;9.57;3.00;;;14.40;99.90;;;;;;12556201;28;20060;-79
2022/05/13 09:06:30;;;;;;;9.70;3.03;;;14.70;99.90;;;;;;12557081;28;20489;-79
2022/05/13 09:12:58;;;;;;;7.97;3.25;;;14.90;99.90;;;;;;12513005;28;20542;-79
2022/05/13 09:19:03;;;;;;;10.75;2.70;;;15.00;99.90;;;;;;12542494;28;20041;-79
2022/05/13 09:25:07;;;;;;;12.38;3.03;;;15.10;99.90;;;;;;12552932;28;20401;-79
2022/05/13 09:31:21;;;;;;;10.40;2.83;;;14.90;99.90;;;;;;12567703;28;20066;-79
2022/05/13 09:37:44;;;;;;;9.95;2.50;;;14.80;99.90;;;;;;12567216;28;20063;-79
2022/05/13 09:43:55;;;;;;;5.68;2.40;;;14.80;99.90;;;;;;12568321;28;20048;-80
2022/05/13 09:50:00;;;;;;;5.20;1.90;;;14.70;99.90;;;;;;12568300;28;20455;-79
2022/05/13 09:56:04;;;;;;;5.90;2.15;;;14.80;99.90;;;;;;12504586;28;20061;-79
2022/05/13 10:02:23;;;;;;;11.07;2.72;;;14.70;99.90;;;;;;12519467;28;20125;-79
2022/05/13 10:08:26;;;;;;;7.28;2.10;;;14.90;99.90;;;;;;12553709;28;20052;-80
2022/05/13 10:14:38;;;;;;;6.17;1.87;;;15.20;99.90;;;;;;12547046;28;20048;-80
2022/05/13 10:20:42;;;;;;;4.97;1.95;;;15.50;99.90;;;;;;12552764;28;20284;-78
2022/05/13 10:26:47;;;;;;;5.45;1.70;;;15.80;99.90;;;;;;12568390;28;20151;-79
2022/05/13 10:33:02;;;;;;;7.18;1.80;;;15.50;99.90;;;;;;12555191;28;20114;-80
2022/05/13 10:39:14;;;;;;;7.97;2.10;;;15.50;99.90;;;;;;12567239;28;20072;-80
2022/05/13 10:45:27;;;;;;;6.85;1.60;;;15.30;99.90;;;;;;12566568;28;20578;-78
2022/05/13 10:51:53;;;;;;;6.07;1.60;;;15.10;99.90;;;;;;12575342;28;20056;-80
2022/05/13 10:58:35;;;;;;;6.18;1.80;;;15.00;99.90;;;;;;12554660;28;20108;-79
2022/05/13 11:04:46;;;;;;;6.75;1.75;;;14.90;99.90;;;;;;12572657;28;20483;-79
2022/05/13 11:10:53;;;;;;;4.07;1.45;;;15.30;99.90;;;;;;12580801;28;20453;-79
2022/05/13 11:17:03;;;;;;;6.32;1.77;;;15.50;99.90;;;;;;12564015;28;21027;-79
2022/05/13 11:23:05;;;;;;;3.75;1.70;;;15.70;99.90;;;;;;12585012;28;20093;-80
2022/05/13 11:29:36;;;;;;;5.65;1.65;;;15.70;99.90;;;;;;12574659;28;20083;-79
2022/05/13 11:36:00;;;;;;;5.30;1.80;;;15.70;99.90;;;;;;12571187;28;20048;-79
2022/05/13 11:42:20;;;;;;;;;;;15.90;99.90;;;;;;12542539;28;20044;-79
2022/05/13 11:48:27;;;;;;;4.88;1.95;;;15.70;99.90;;;;;;12569809;28;19924;-79
2022/05/13 11:54:30;;;;;;;5.30;2.25;;;15.40;99.90;;;;;;12566597;28;20052;-81
2022/05/13 12:00:35;;;;;;;6.82;1.80;;;15.50;99.90;;;;;;12552227;28;20390;-80
2022/05/13 12:06:49;;;;;;;6.22;2.10;;;16.10;99.90;;;;;;12560796;28;20125;-79
2022/05/13 12:13:33;;;;;;;5.65;2.22;;;16.40;99.90;;;;;;12558816;28;20127;-79
2022/05/13 12:19:53;;;;;;;6.60;2.60;;;16.20;99.90;;;;;;12512914;28;20581;-79
2022/05/13 12:26:02;;;;;;;12.00;2.47;;;16.60;99.90;;;;;;12557728;28;20056;-81
2022/05/13 12:32:16;;;;;;;7.85;2.60;;;16.70;99.90;;;;;;12561763;28;20056;-79
2022/05/13 12:38:18;;;;;;;6.95;2.55;;;16.40;99.90;;;;;;12556832;28;20044;-80
2022/05/13 12:44:32;;;;;;;7.30;3.00;;;16.70;99.90;;;;;;12559113;28;20576;-80
2022/05/13 12:50:37;;;;;;;;;;;17.00;99.90;;;;;;12562494;28;20524;-79
2022/05/13 12:56:40;;;;;;;;;;;16.90;99.90;;;;;;12567292;28;19928;-81
2022/05/13 13:02:43;;;;;;;9.97;3.10;;;16.80;99.90;;;;;;12541819;28;19925;-78
2022/05/13 13:08:49;;;;;;;9.00;2.95;;;17.20;99.90;;;;;;12500050;28;20345;-79
2022/05/13 13:15:24;;;;;;;7.95;2.83;;;17.10;99.90;;;;;;12542046;28;20079;-81
2022/05/13 13:21:25;;;;;;;;;;;17.20;99.90;;;;;;12534852;28;20056;-79
2022/05/13 13:27:31;;;;;;;8.63;2.38;;;17.60;99.90;;;;;;12519889;28;19925;-79
2022/05/13 13:33:36;;;;;;;6.78;2.40;;;17.30;99.90;;;;;;12519723;28;20068;-79
2022/05/13 13:39:38;;;;;;;6.80;2.50;;;17.00;99.90;;;;;;12484594;28;20541;-80
2022/05/13 13:45:46;;;;;;;5.18;2.10;;;17.50;99.90;;;;;;12494412;28;20041;-79
2022/05/13 13:51:53;;;;;;;7.00;2.30;;;17.70;99.90;;;;;;12511807;28;20137;-80
2022/05/13 13:58:23;;;;;;;4.55;2.20;;;17.60;99.90;;;;;;12508490;28;20045;-79
2022/05/13 14:04:28;;;;;;;4.65;2.03;;;17.70;99.90;;;;;;12511160;28;20197;-79
2022/05/13 14:10:45;;;;;;;8.57;2.38;;;18.20;99.90;;;;;;12520957;28;20056;-80
2022/05/13 14:17:17;;;;;;;8.73;2.63;;;18.50;99.90;;;;;;12505797;28;21198;-80
2022/05/13 14:23:19;;;;;;;8.35;2.10;;;18.20;99.90;;;;;;12503550;28;20176;-79
2022/05/13 14:29:24;;;;;;;6.15;2.10;;;17.90;99.90;;;;;;12520723;28;20049;-79
2022/05/13 14:35:31;;;;;;;7.40;1.92;;;17.80;99.90;;;;;;12514094;28;20126;-79
2022/05/13 14:41:43;;;;;;;5.60;2.42;;;17.70;99.90;;;;;;12518457;28;20048;-79
2022/05/13 14:47:49;;;;;;;5.78;2.05;;;17.90;99.90;;;;;;12509722;28;20052;-79
2022/05/13 14:53:53;;;;;;;;;;;17.70;99.90;;;;;;12497927;28;20432;-80
2022/05/13 15:00:06;;;;;;;7.05;1.73;;;17.80;99.90;;;;;;12526606;28;20991;-80
2022/05/13 15:06:29;;;;;;;6.57;1.85;;;17.90;99.90;;;;;;12518033;28;20048;-79
2022/05/13 15:12:30;;;;;;;7.53;1.73;;;17.90;99.90;;;;;;12517727;28;20531;-80
2022/05/13 15:18:35;;;;;;;5.10;1.92;;;18.00;99.90;;;;;;12518193;28;20048;-79
2022/05/13 15:24:40;;;;;;;7.50;2.17;;;18.00;99.90;;;;;;12511697;28;20123;-79
2022/05/13 15:30:42;;;;;;;5.13;1.95;;;17.60;99.90;;;;;;12497697;28;20398;-81
2022/05/13 15:36:44;;;;;;;6.15;2.13;;;17.90;99.90;;;;;;12502827;28;20053;-79
2022/05/13 15:42:48;;;;;;;5.53;1.88;;;18.00;99.90;;;;;;12512736;28;20041;-80
2022/05/13 15:48:53;;;;;;;6.03;2.28;;;17.90;99.90;;;;;;12499808;28;20040;-79
2022/05/13 15:54:54;;;;;;;6.70;1.80;;;17.80;99.90;;;;;;12511501;28;20106;-79
2022/05/13 16:00:56;;;;;;;5.07;1.90;;;17.40;99.90;;;;;;12510007;28;20429;-79
2022/05/13 16:06:58;;;;;;;6.28;1.70;;;17.30;99.90;;;;;;12516325;28;20145;-80
2022/05/13 16:13:09;;;;;;;6.00;2.00;;;17.40;99.90;;;;;;12495760;28;20056;-79
2022/05/13 16:19:15;;;;;;;5.82;2.00;;;17.50;99.90;;;;;;12509188;28;20059;-79
2022/05/13 16:25:19;;;;;;;7.65;1.83;;;17.80;99.90;;;;;;12511349;28;20095;-79
2022/05/13 16:31:21;;;;;;;4.50;1.60;;;17.80;99.90;;;;;;12506543;28;20098;-79
2022/05/13 16:37:41;;;;;;;6.97;1.60;;;17.70;99.90;;;;;;12501257;28;20066;-80
2022/05/13 16:43:45;;;;;;;5.55;2.13;;;17.40;99.90;;;;;;12506875;28;20056;-79
2022/05/13 16:49:48;;;;;;;;;;;17.60;99.90;;;;;;12509167;28;20163;-79
2022/05/13 16:55:50;;;;;;;7.05;1.52;;;17.60;99.90;;;;;;12518967;28;20372;-79
2022/05/13 17:01:51;;;;;;;6.15;1.35;;;17.60;99.90;;;;;;12513789;28;20040;-79
2022/05/13 17:07:54;;;;;;;6.70;1.88;;;18.00;99.90;;;;;;12509777;28;20564;-79
2022/05/13 17:20:17;;;;;;;5.95;1.52;;;18.00;99.90;;;;;;12511305;28;20095;-80
2022/05/13 17:26:19;;;;;;;5.15;1.48;;;18.10;99.90;;;;;;12506611;28;20114;-79
2022/05/13 17:32:23;;;;;;;9.02;1.55;;;17.80;99.90;;;;;;12509812;28;20149;-79
2022/05/13 17:38:28;;;;;;;9.88;1.50;;;17.50;99.90;;;;;;12470309;28;20054;-79
2022/05/13 17:44:30;;;;;;;7.35;1.73;;;17.50;99.90;;;;;;12488471;28;20118;-79
2022/05/13 17:50:33;;;;;;;8.00;1.75;;;17.60;99.90;;;;;;12500568;28;20480;-78
2022/05/13 17:56:37;;;;;;;4.18;1.42;;;17.60;99.90;;;;;;12480317;28;20134;-80
2022/05/13 18:02:39;;;;;;;7.73;1.80;;;17.60;99.90;;;;;;12481528;28;20532;-79
2022/05/13 18:08:41;;;;;;;7.88;1.73;;;17.30;99.90;;;;;;12508196;28;20052;-79
2022/05/13 18:14:43;;;;;;;13.07;2.22;;;17.10;99.90;;;;;;12512061;28;20170;-79
2022/05/13 18:20:45;;;;;;;8.80;2.25;;;16.90;99.90;;;;;;12517008;28;20094;-80
2022/05/13 18:26:47;;;;;;;8.07;2.00;;;16.70;99.90;;;;;;12514688;28;20094;-80
2022/05/13 18:32:49;;;;;;;7.03;1.95;;;16.60;99.90;;;;;;12501463;28;20063;-79
2022/05/13 18:38:51;;;;;;;8.23;1.90;;;16.40;99.90;;;;;;12573353;28;20053;-80
2022/05/13 18:51:15;;;;;;;10.68;2.55;;;16.00;99.90;;;;;;12570129;28;20461;-79
2022/05/13 18:57:17;;;;;;;5.60;2.03;;;16.00;99.90;;;;;;12560491;28;20497;-78
2022/05/13 19:03:19;;;;;;;5.60;2.20;;;15.90;99.90;;;;;;12541112;28;20540;-80
2022/05/13 19:09:22;;;;;;;7.45;2.50;;;15.90;99.90;;;;;;12569439;28;20791;-78
2022/05/13 19:15:24;;;;;;;8.50;2.20;;;15.90;99.90;;;;;;12575222;28;20047;-80
2022/05/13 19:21:29;;;;;;;8.00;2.45;;;15.90;99.90;;;;;;12572852;28;20394;-79
2022/05/13 19:27:32;;;;;;;4.93;2.17;;;15.90;99.90;;;;;;12554161;28;20056;-79
2022/05/13 19:33:36;;;;;;;5.47;1.98;;;15.80;99.90;;;;;;12570570;28;20056;-80
2022/05/13 19:39:39;;;;;;;8.98;2.75;;;15.30;99.90;;;;;;12569827;28;20109;-79
2022/05/13 19:45:41;;;;;;;10.70;3.00;;;15.30;99.90;;;;;;12506128;28;20564;-79
2022/05/13 19:51:44;;;;;;;5.65;3.00;;;15.20;99.90;;;;;;12514787;28;22018;-79
2022/05/13 19:57:46;;;;;;;9.10;3.80;;;15.20;99.90;;;;;;12510958;28;20061;-79
2022/05/13 20:03:48;;;;;;;9.32;3.90;;;15.20;99.90;;;;;;12530242;28;20052;-79
2022/05/13 20:16:11;;;;;;;11.65;4.55;;;15.20;99.90;;;;;;12508791;28;20619;-80
2022/05/13 20:28:34;;;;;;;10.38;5.15;;;15.20;99.90;;;;;;12517638;28;20097;-78
2022/05/13 20:34:37;;;;;;;10.35;5.43;;;15.10;99.90;;;;;;12513451;28;20048;-79
2022/05/13 20:40:40;;;;;;;10.17;4.97;;;14.90;99.90;;;;;;12480380;28;20087;-79
2022/05/13 20:46:45;;;;;;;9.30;5.72;;;14.90;99.90;;;;;;12499280;28;20045;-79
2022/05/13 20:52:48;;;;;;;8.50;5.40;;;14.70;99.90;;;;;;12515424;28;20076;-79
2022/05/13 20:58:50;;;;;;;10.90;5.38;;;14.90;99.90;;;;;;12510051;28;20149;-79
2022/05/13 21:04:56;;;;;;;10.80;6.07;;;14.80;99.90;;;;;;12509930;28;20086;-79
2022/05/13 21:10:58;;;;;;;10.57;6.70;;;14.60;99.90;;;;;;12495528;28;20053;-79
2022/05/13 21:17:00;;;;;;;9.38;5.85;;;14.40;99.90;;;;;;12511089;28;20053;-79
2022/05/13 21:23:02;;;;;;;12.75;5.75;;;14.30;99.90;;;;;;12507960;28;20056;-79
2022/05/13 21:29:03;;;;;;;9.63;6.03;;;14.20;99.90;;;;;;12532159;28;20057;-80
2022/05/13 21:41:27;;;;;;;8.80;5.07;;;14.20;99.90;;;;;;12572693;28;20091;-80
2022/05/13 21:47:29;;;;;;;10.95;4.82;;;14.00;99.90;;;;;;12578109;28;20105;-80
2022/05/13 21:53:31;;;;;;;7.97;4.18;;;14.00;99.90;;;;;;12581459;28;20059;-79
2022/05/13 21:59:32;;;;;;;10.73;4.68;;;14.00;99.90;;;;;;12578220;28;20139;-79
2022/05/13 22:05:36;;;;;;;9.65;5.00;;;14.10;99.90;;;;;;12567718;28;20105;-79
2022/05/13 22:11:39;;;;;;;8.35;4.68;;;14.20;99.90;;;;;;12577203;28;20056;-79
2022/05/13 22:17:40;;;;;;;10.23;4.70;;;14.20;99.90;;;;;;12572180;28;20110;-80
2022/05/13 22:23:42;;;;;;;9.82;3.92;;;14.40;99.90;;;;;;12557294;28;20079;-80
2022/05/13 22:29:44;;;;;;;10.02;3.60;;;14.00;99.90;;;;;;12574528;28;20049;-80
2022/05/13 22:35:46;;;;;;;9.15;3.45;;;14.00;99.90;;;;;;12556063;28;20465;-79
2022/05/13 22:41:47;;;;;;;7.03;3.40;;;13.90;99.90;;;;;;12568189;28;20055;-79
2022/05/13 22:47:49;;;;;;;4.93;3.05;;;14.10;99.90;;;;;;12570498;28;20163;-79
2022/05/13 22:53:51;;;;;;;7.55;3.35;;;14.30;99.90;;;;;;12564226;28;20337;-79
2022/05/13 22:59:53;;;;;;;9.63;3.20;;;14.20;99.90;;;;;;12557762;28;20589;-80
2022/05/13 23:12:15;;;;;;;8.20;3.40;;;13.90;99.90;;;;;;12564209;28;20558;-80
2022/05/13 23:18:17;;;;;;;6.13;3.25;;;13.70;99.90;;;;;;12565858;28;20121;-79
2022/05/13 23:24:20;;;;;;;6.45;2.88;;;13.80;99.90;;;;;;12567785;28;20465;-79
2022/05/13 23:30:22;;;;;;;6.88;3.20;;;13.90;99.90;;;;;;12548632;28;20655;-79
2022/05/13 23:36:25;;;;;;;7.30;3.10;;;13.90;99.90;;;;;;12560602;28;20428;-79
2022/05/13 23:42:27;;;;;;;11.20;2.67;;;13.80;99.90;;;;;;12563071;28;20554;-79
2022/05/13 23:48:29;;;;;;;7.22;2.90;;;13.70;99.90;;;;;;12534255;28;20645;-79
